地図

経路データ

SID SEASON NUMBER BASIN SUBBASIN NAME ISO_TIME NATURE LAT LON WMO_WIND WMO_PRES WMO_AGENCY TRACK_TYPE DIST2LAND LANDFALL IFLAG USA_AGENCY USA_ATCF_ID USA_LAT USA_LON USA_RECORD USA_STATUS USA_WIND USA_PRES USA_SSHS USA_R34_NE USA_R34_SE USA_R34_SW USA_R34_NW USA_R50_NE USA_R50_SE USA_R50_SW USA_R50_NW USA_R64_NE USA_R64_SE USA_R64_SW USA_R64_NW USA_POCI USA_ROCI USA_RMW USA_EYE TOKYO_LAT TOKYO_LON TOKYO_GRADE TOKYO_WIND TOKYO_PRES TOKYO_R50_DIR TOKYO_R50_LONG TOKYO_R50_SHORT TOKYO_R30_DIR TOKYO_R30_LONG TOKYO_R30_SHORT TOKYO_LAND CMA_LAT CMA_LON CMA_CAT CMA_WIND CMA_PRES HKO_LAT HKO_LON HKO_CAT HKO_WIND HKO_PRES NEWDELHI_LAT NEWDELHI_LON NEWDELHI_GRADE NEWDELHI_WIND NEWDELHI_PRES NEWDELHI_CI NEWDELHI_DP NEWDELHI_POCI REUNION_LAT REUNION_LON REUNION_TYPE REUNION_WIND REUNION_PRES REUNION_TNUM REUNION_CI REUNION_RMW REUNION_R34_NE REUNION_R34_SE REUNION_R34_SW REUNION_R34_NW REUNION_R50_NE REUNION_R50_SE REUNION_R50_SW REUNION_R50_NW REUNION_R64_NE REUNION_R64_SE REUNION_R64_SW REUNION_R64_NW BOM_LAT BOM_LON BOM_TYPE BOM_WIND BOM_PRES BOM_TNUM BOM_CI BOM_RMW BOM_R34_NE BOM_R34_SE BOM_R34_SW BOM_R34_NW BOM_R50_NE BOM_R50_SE BOM_R50_SW BOM_R50_NW BOM_R64_NE BOM_R64_SE BOM_R64_SW BOM_R64_NW BOM_ROCI BOM_POCI BOM_EYE BOM_POS_METHOD BOM_PRES_METHOD NADI_LAT NADI_LON NADI_CAT NADI_WIND NADI_PRES WELLINGTON_LAT WELLINGTON_LON WELLINGTON_WIND WELLINGTON_PRES DS824_LAT DS824_LON DS824_STAGE DS824_WIND DS824_PRES TD9636_LAT TD9636_LON TD9636_STAGE TD9636_WIND TD9636_PRES TD9635_LAT TD9635_LON TD9635_WIND TD9635_PRES TD9635_ROCI NEUMANN_LAT NEUMANN_LON NEUMANN_CLASS NEUMANN_WIND NEUMANN_PRES MLC_LAT MLC_LON MLC_CLASS MLC_WIND MLC_PRES USA_GUST BOM_GUST BOM_GUST_PER REUNION_GUST REUNION_GUST_PER USA_SEAHGT USA_SEARAD_NE USA_SEARAD_SE USA_SEARAD_SW USA_SEARAD_NW STORM_SPEED STORM_DIR
2015209N26072 2015 53 NI AS NOT_NAMED 2015-07-27 12:00:00 NR 26.2000 71.8000 25 994 newdelhi main 0 0 ____O_________ -1 26.2000 71.8000 D 25 994 0.00000 4 4 172
2015209N26072 2015 53 NI AS NOT_NAMED 2015-07-27 15:00:00 NR 26.0000 71.8000 25 994 newdelhi main 0 0 ____O_________ -1 26.0000 71.8000 D 25 994 0.00000 4 4 0
2015209N26072 2015 53 NI AS NOT_NAMED 2015-07-27 18:00:00 NR 25.8000 71.8000 25 996 newdelhi main 0 0 ____O_________ -1 25.8000 71.8000 D 25 996 0.00000 4 1 0
2015209N26072 2015 53 NI AS NOT_NAMED 2015-07-27 21:00:00 NR 26.1000 71.8000 25 996 newdelhi main 0 0 ____O_________ -1 26.1000 71.8000 D 25 996 0.00000 4 4 0
2015209N26072 2015 53 NI AS NOT_NAMED 2015-07-28 00:00:00 NR 26.2000 71.8000 25 994 newdelhi main 0 0 ____O_________ -1 26.2000 71.8000 D 25 994 0.00000 4 13 179
2015209N26072 2015 53 NI AS NOT_NAMED 2015-07-28 03:00:00 NR 24.8000 71.8000 30 994 newdelhi main 0 0 ____O_________ -1 24.8000 71.8000 DD 30 994 0.00000 5 14 0
2015209N26072 2015 53 NI AS NOT_NAMED 2015-07-28 06:00:00 NR 24.8000 71.8000 30 994 newdelhi main 0 0 ____O_________ -1 24.8000 71.8000 DD 30 994 0.00000 5 0 0
2015209N26072 2015 53 NI AS NOT_NAMED 2015-07-28 09:00:00 NR 24.8000 71.8000 30 994 newdelhi main 0 0 ____O_________ -1 24.8000 71.8000 DD 30 994 0.00000 5 7 15
2015209N26072 2015 53 NI AS NOT_NAMED 2015-07-28 12:00:00 NR 25.5000 72.0000 30 994 newdelhi main 0 0 ____O_________ -1 25.5000 72.0000 DD 30 994 0.00000 5 8 19
2015209N26072 2015 53 NI AS NOT_NAMED 2015-07-28 15:00:00 NR 25.6000 72.1000 30 996 newdelhi main 0 0 ____O_________ -1 25.6000 72.1000 DD 30 996 0.00000 5 3 16
2015209N26072 2015 53 NI AS NOT_NAMED 2015-07-28 18:00:00 NR 25.8000 72.1000 30 996 newdelhi main 0 0 ____O_________ -1 25.8000 72.1000 DD 30 996 0.00000 5 4 31
2015209N26072 2015 53 NI AS NOT_NAMED 2015-07-28 21:00:00 NR 25.9000 72.3000 25 996 newdelhi main 0 0 ____O_________ -1 25.9000 72.3000 DD 25 996 0.00000 5 8 27
2015209N26072 2015 53 NI AS NOT_NAMED 2015-07-29 00:00:00 NR 26.5000 72.5000 25 996 newdelhi main 0 0 ____O_________ -1 26.5000 72.5000 DD 25 996 0.00000 5 14 26
2015209N26072 2015 53 NI AS NOT_NAMED 2015-07-29 03:00:00 NR 27.2000 73.0000 25 996 newdelhi main 0 0 ____O_________ -1 27.2000 73.0000 D 25 996 0.00000 4 8 32
2015209N26072 2015 53 NI AS NOT_NAMED 2015-07-29 06:00:00 NR 27.2000 73.0000 25 996 newdelhi main 0 0 ____O_________ -1 27.2000 73.0000 D 25 996 0.00000 4 0 0
2015209N26072 2015 53 NI AS NOT_NAMED 2015-07-29 09:00:00 NR 27.2000 73.0000 25 996 newdelhi main 0 0 ____O_________ -1 27.2000 73.0000 D 25 996 0.00000 4 5 2
2015209N26072 2015 53 NI AS NOT_NAMED 2015-07-29 12:00:00 NR 27.7000 73.0000 25 998 newdelhi main 0 0 ____O_________ -1 27.7000 73.0000 D 25 998 0.00000 4 7 0
2015209N26072 2015 53 NI AS NOT_NAMED 2015-07-29 15:00:00 NR 27.9000 73.0000 25 998 newdelhi main 0 0 ____O_________ -1 27.9000 73.0000 D 25 998 0.00000 4 2 25
2015209N26072 2015 53 NI AS NOT_NAMED 2015-07-29 18:00:00 NR 27.9000 73.1000 25 998 newdelhi main 0 0 ____O_________ -1 27.9000 73.1000 D 25 998 0.00000 3 1 40
2015209N26072 2015 53 NI AS NOT_NAMED 2015-07-29 21:00:00 NR 28.0000 73.1000 25 998 newdelhi main 0 0 ____O_________ -1 28.0000 73.1000 D 25 998 0.00000 3 8 18
2015209N26072 2015 53 NI AS NOT_NAMED 2015-07-30 00:00:00 NR 28.7000 73.4000 25 998 newdelhi main 0 ____O_________ -1 28.7000 73.4000 D 25 998 0.00000 3 15 21

IBTrACS Databaseについて

本データベースは、米国NOAAが公開する1842年以降の世界の熱帯低気圧のベストトラックデータアーカイブInternational Best Track Archive for Climate Stewardship (IBTrACS)を、ウェブで閲覧しやすい形式に変換したものです。

最終更新日:2021-10-21